sensor_id;sensor_type;location;lat;lon;timestamp;P1;durP1;ratioP1;P2;durP2;ratioP2
23642;SDS011;11998;55.788;37.572;2022-12-20T00:00:41;14.20;;;7.33;;
23642;SDS011;11998;55.788;37.572;2022-12-20T00:01:42;11.85;;;7.75;;
23642;SDS011;11998;55.788;37.572;2022-12-20T00:02:42;12.43;;;7.33;;
23642;SDS011;11998;55.788;37.572;2022-12-20T00:03:44;13.05;;;6.68;;
23642;SDS011;11998;55.788;37.572;2022-12-20T00:04:44;11.57;;;7.57;;
23642;SDS011;11998;55.788;37.572;2022-12-20T00:05:45;11.40;;;7.43;;
23642;SDS011;11998;55.788;37.572;2022-12-20T00:06:46;12.27;;;7.35;;
23642;SDS011;11998;55.788;37.572;2022-12-20T00:07:47;12.10;;;7.10;;
23642;SDS011;11998;55.788;37.572;2022-12-20T00:08:51;10.80;;;6.80;;
23642;SDS011;11998;55.788;37.572;2022-12-20T00:09:53;13.15;;;7.18;;
23642;SDS011;11998;55.788;37.572;2022-12-20T00:10:54;11.80;;;6.50;;
23642;SDS011;11998;55.788;37.572;2022-12-20T00:11:54;9.47;;;6.47;;
23642;SDS011;11998;55.788;37.572;2022-12-20T00:12:54;11.50;;;6.50;;
23642;SDS011;11998;55.788;37.572;2022-12-20T00:13:55;9.57;;;6.40;;
23642;SDS011;11998;55.788;37.572;2022-12-20T00:14:56;10.80;;;6.82;;
23642;SDS011;11998;55.788;37.572;2022-12-20T00:17:08;9.00;;;6.50;;
23642;SDS011;11998;55.788;37.572;2022-12-20T00:18:08;9.10;;;6.17;;
23642;SDS011;11998;55.788;37.572;2022-12-20T00:19:09;9.40;;;6.50;;
23642;SDS011;11998;55.788;37.572;2022-12-20T00:20:10;11.25;;;6.78;;
23642;SDS011;11998;55.788;37.572;2022-12-20T00:21:11;9.47;;;6.13;;
23642;SDS011;11998;55.788;37.572;2022-12-20T00:22:13;9.57;;;6.32;;
23642;SDS011;11998;55.788;37.572;2022-12-20T00:23:13;11.13;;;6.73;;
23642;SDS011;11998;55.788;37.572;2022-12-20T00:24:14;8.97;;;6.40;;
23642;SDS011;11998;55.788;37.572;2022-12-20T00:25:14;11.47;;;7.00;;
23642;SDS011;11998;55.788;37.572;2022-12-20T00:26:16;8.93;;;6.27;;
23642;SDS011;11998;55.788;37.572;2022-12-20T00:27:17;10.00;;;6.43;;
23642;SDS011;11998;55.788;37.572;2022-12-20T00:28:18;11.30;;;6.70;;
23642;SDS011;11998;55.788;37.572;2022-12-20T00:29:18;11.13;;;7.20;;
23642;SDS011;11998;55.788;37.572;2022-12-20T00:30:19;12.37;;;6.90;;
23642;SDS011;11998;55.788;37.572;2022-12-20T00:31:20;13.33;;;7.73;;
23642;SDS011;11998;55.788;37.572;2022-12-20T00:32:22;11.85;;;7.22;;
23642;SDS011;11998;55.788;37.572;2022-12-20T00:33:22;11.73;;;7.17;;
23642;SDS011;11998;55.788;37.572;2022-12-20T00:34:23;11.70;;;7.10;;
23642;SDS011;11998;55.788;37.572;2022-12-20T00:35:24;14.37;;;8.03;;
23642;SDS011;11998;55.788;37.572;2022-12-20T00:36:25;12.13;;;7.63;;
23642;SDS011;11998;55.788;37.572;2022-12-20T00:37:27;14.07;;;7.93;;
23642;SDS011;11998;55.788;37.572;2022-12-20T00:38:28;11.10;;;7.07;;
23642;SDS011;11998;55.788;37.572;2022-12-20T00:39:29;12.20;;;7.73;;
23642;SDS011;11998;55.788;37.572;2022-12-20T00:40:29;11.20;;;7.13;;
23642;SDS011;11998;55.788;37.572;2022-12-20T00:41:31;11.53;;;7.37;;
23642;SDS011;11998;55.788;37.572;2022-12-20T00:42:33;10.55;;;7.18;;
23642;SDS011;11998;55.788;37.572;2022-12-20T00:43:33;12.47;;;6.87;;
23642;SDS011;11998;55.788;37.572;2022-12-20T00:44:34;11.63;;;7.05;;
23642;SDS011;11998;55.788;37.572;2022-12-20T00:45:35;11.37;;;7.03;;
23642;SDS011;11998;55.788;37.572;2022-12-20T00:46:36;8.63;;;6.03;;
23642;SDS011;11998;55.788;37.572;2022-12-20T00:47:36;11.57;;;7.10;;
23642;SDS011;11998;55.788;37.572;2022-12-20T00:48:37;11.87;;;7.00;;
23642;SDS011;11998;55.788;37.572;2022-12-20T00:49:37;12.37;;;7.30;;
23642;SDS011;11998;55.788;37.572;2022-12-20T00:50:38;11.50;;;7.33;;
23642;SDS011;11998;55.788;37.572;2022-12-20T00:51:38;10.27;;;6.67;;
23642;SDS011;11998;55.788;37.572;2022-12-20T00:52:39;10.40;;;7.10;;
23642;SDS011;11998;55.788;37.572;2022-12-20T00:53:40;10.73;;;6.60;;
23642;SDS011;11998;55.788;37.572;2022-12-20T00:54:41;10.85;;;6.78;;
23642;SDS011;11998;55.788;37.572;2022-12-20T00:55:42;10.47;;;6.57;;
23642;SDS011;11998;55.788;37.572;2022-12-20T00:56:43;11.32;;;7.05;;
23642;SDS011;11998;55.788;37.572;2022-12-20T00:57:44;10.47;;;6.40;;
23642;SDS011;11998;55.788;37.572;2022-12-20T00:58:44;10.00;;;6.43;;
23642;SDS011;11998;55.788;37.572;2022-12-20T00:59:45;10.40;;;6.67;;
23642;SDS011;11998;55.788;37.572;2022-12-20T01:00:46;10.60;;;6.20;;
23642;SDS011;11998;55.788;37.572;2022-12-20T01:01:47;11.27;;;6.30;;
23642;SDS011;11998;55.788;37.572;2022-12-20T01:02:47;9.90;;;6.40;;
23642;SDS011;11998;55.788;37.572;2022-12-20T01:03:48;11.93;;;7.10;;
23642;SDS011;11998;55.788;37.572;2022-12-20T01:04:50;11.38;;;6.68;;
23642;SDS011;11998;55.788;37.572;2022-12-20T01:05:54;11.17;;;7.37;;
23642;SDS011;11998;55.788;37.572;2022-12-20T01:06:56;11.80;;;6.80;;
23642;SDS011;11998;55.788;37.572;2022-12-20T01:07:57;11.73;;;7.00;;
23642;SDS011;11998;55.788;37.572;2022-12-20T01:08:58;11.65;;;6.90;;
23642;SDS011;11998;55.788;37.572;2022-12-20T01:09:58;10.93;;;6.80;;
23642;SDS011;11998;55.788;37.572;2022-12-20T01:11:03;16.43;;;7.20;;
23642;SDS011;11998;55.788;37.572;2022-12-20T01:12:07;11.05;;;7.18;;
23642;SDS011;11998;55.788;37.572;2022-12-20T01:13:08;12.13;;;7.13;;
23642;SDS011;11998;55.788;37.572;2022-12-20T01:14:13;10.43;;;6.37;;
23642;SDS011;11998;55.788;37.572;2022-12-20T01:15:15;10.35;;;6.50;;
23642;SDS011;11998;55.788;37.572;2022-12-20T01:16:20;12.57;;;6.73;;
23642;SDS011;11998;55.788;37.572;2022-12-20T01:17:23;8.55;;;6.07;;
23642;SDS011;11998;55.788;37.572;2022-12-20T01:18:23;11.00;;;6.67;;
23642;SDS011;11998;55.788;37.572;2022-12-20T01:19:24;9.73;;;6.13;;
23642;SDS011;11998;55.788;37.572;2022-12-20T01:20:25;9.63;;;6.10;;
23642;SDS011;11998;55.788;37.572;2022-12-20T01:21:26;10.53;;;6.33;;
23642;SDS011;11998;55.788;37.572;2022-12-20T01:22:27;9.38;;;6.57;;
23642;SDS011;11998;55.788;37.572;2022-12-20T01:23:27;7.33;;;5.63;;
23642;SDS011;11998;55.788;37.572;2022-12-20T01:24:28;9.13;;;6.27;;
23642;SDS011;11998;55.788;37.572;2022-12-20T01:25:29;8.87;;;6.00;;
23642;SDS011;11998;55.788;37.572;2022-12-20T01:26:29;8.90;;;6.17;;
23642;SDS011;11998;55.788;37.572;2022-12-20T01:27:30;8.37;;;5.77;;
23642;SDS011;11998;55.788;37.572;2022-12-20T01:28:30;11.10;;;6.03;;
23642;SDS011;11998;55.788;37.572;2022-12-20T01:29:31;9.43;;;6.25;;
23642;SDS011;11998;55.788;37.572;2022-12-20T01:30:32;9.70;;;5.67;;
23642;SDS011;11998;55.788;37.572;2022-12-20T01:31:32;9.60;;;5.90;;
23642;SDS011;11998;55.788;37.572;2022-12-20T01:32:33;10.43;;;5.97;;
23642;SDS011;11998;55.788;37.572;2022-12-20T01:33:34;11.43;;;6.33;;
23642;SDS011;11998;55.788;37.572;2022-12-20T01:34:35;10.43;;;6.10;;
23642;SDS011;11998;55.788;37.572;2022-12-20T01:35:38;9.20;;;6.32;;
23642;SDS011;11998;55.788;37.572;2022-12-20T01:36:39;10.27;;;5.80;;
23642;SDS011;11998;55.788;37.572;2022-12-20T01:37:39;9.53;;;6.47;;
23642;SDS011;11998;55.788;37.572;2022-12-20T01:38:40;8.27;;;6.30;;
23642;SDS011;11998;55.788;37.572;2022-12-20T01:39:40;8.57;;;5.90;;
23642;SDS011;11998;55.788;37.572;2022-12-20T01:40:41;10.37;;;7.00;;
23642;SDS011;11998;55.788;37.572;2022-12-20T01:41:42;9.93;;;5.80;;
23642;SDS011;11998;55.788;37.572;2022-12-20T01:42:44;9.35;;;6.45;;
23642;SDS011;11998;55.788;37.572;2022-12-20T01:43:46;9.30;;;6.17;;
23642;SDS011;11998;55.788;37.572;2022-12-20T01:44:51;11.60;;;6.68;;
23642;SDS011;11998;55.788;37.572;2022-12-20T01:45:55;9.75;;;6.72;;
23642;SDS011;11998;55.788;37.572;2022-12-20T01:46:56;10.13;;;6.53;;
23642;SDS011;11998;55.788;37.572;2022-12-20T01:47:57;12.90;;;7.15;;
23642;SDS011;11998;55.788;37.572;2022-12-20T01:49:01;11.00;;;6.18;;
23642;SDS011;11998;55.788;37.572;2022-12-20T01:50:07;10.18;;;6.75;;
23642;SDS011;11998;55.788;37.572;2022-12-20T01:51:08;10.48;;;6.80;;
23642;SDS011;11998;55.788;37.572;2022-12-20T01:52:23;13.73;;;7.03;;
23642;SDS011;11998;55.788;37.572;2022-12-20T01:53:29;9.00;;;6.00;;
23642;SDS011;11998;55.788;37.572;2022-12-20T01:54:31;9.63;;;7.15;;
23642;SDS011;11998;55.788;37.572;2022-12-20T01:55:40;12.73;;;7.32;;
23642;SDS011;11998;55.788;37.572;2022-12-20T01:56:42;10.73;;;6.90;;
23642;SDS011;11998;55.788;37.572;2022-12-20T01:58:06;10.07;;;6.85;;
23642;SDS011;11998;55.788;37.572;2022-12-20T01:59:09;9.93;;;6.47;;
23642;SDS011;11998;55.788;37.572;2022-12-20T02:00:12;10.40;;;6.78;;
23642;SDS011;11998;55.788;37.572;2022-12-20T02:01:13;12.73;;;7.38;;
23642;SDS011;11998;55.788;37.572;2022-12-20T02:02:13;9.13;;;6.70;;
23642;SDS011;11998;55.788;37.572;2022-12-20T02:03:14;11.90;;;6.70;;
23642;SDS011;11998;55.788;37.572;2022-12-20T02:04:16;10.50;;;6.65;;
23642;SDS011;11998;55.788;37.572;2022-12-20T02:05:18;9.53;;;7.20;;
23642;SDS011;11998;55.788;37.572;2022-12-20T02:06:22;12.73;;;7.22;;
23642;SDS011;11998;55.788;37.572;2022-12-20T02:07:24;10.68;;;7.18;;
23642;SDS011;11998;55.788;37.572;2022-12-20T02:08:28;10.77;;;7.60;;
23642;SDS011;11998;55.788;37.572;2022-12-20T02:09:29;11.60;;;7.30;;
23642;SDS011;11998;55.788;37.572;2022-12-20T02:10:58;10.13;;;7.28;;
23642;SDS011;11998;55.788;37.572;2022-12-20T02:12:11;10.10;;;6.68;;
23642;SDS011;11998;55.788;37.572;2022-12-20T02:13:18;12.30;;;7.32;;
23642;SDS011;11998;55.788;37.572;2022-12-20T02:16:02;10.40;;;6.78;;
23642;SDS011;11998;55.788;37.572;2022-12-20T02:19:55;13.80;;;8.27;;
23642;SDS011;11998;55.788;37.572;2022-12-20T02:27:56;10.98;;;7.47;;
23642;SDS011;11998;55.788;37.572;2022-12-20T02:29:18;13.20;;;7.50;;
23642;SDS011;11998;55.788;37.572;2022-12-20T02:30:37;14.50;;;8.23;;
23642;SDS011;11998;55.788;37.572;2022-12-20T02:32:03;13.82;;;8.80;;
23642;SDS011;11998;55.788;37.572;2022-12-20T02:33:02;16.33;;;8.82;;
23642;SDS011;11998;55.788;37.572;2022-12-20T02:34:05;13.10;;;8.20;;
23642;SDS011;11998;55.788;37.572;2022-12-20T02:35:09;16.20;;;8.43;;
23642;SDS011;11998;55.788;37.572;2022-12-20T02:36:15;15.02;;;8.10;;
23642;SDS011;11998;55.788;37.572;2022-12-20T02:37:17;15.60;;;8.60;;
23642;SDS011;11998;55.788;37.572;2022-12-20T02:38:25;14.23;;;8.73;;
23642;SDS011;11998;55.788;37.572;2022-12-20T02:39:30;13.10;;;7.68;;
23642;SDS011;11998;55.788;37.572;2022-12-20T02:40:40;11.77;;;8.18;;
23642;SDS011;11998;55.788;37.572;2022-12-20T02:42:56;15.10;;;8.88;;
23642;SDS011;11998;55.788;37.572;2022-12-20T02:44:04;16.92;;;8.88;;
23642;SDS011;11998;55.788;37.572;2022-12-20T02:45:29;11.40;;;7.18;;
23642;SDS011;11998;55.788;37.572;2022-12-20T02:46:33;14.73;;;8.07;;
23642;SDS011;11998;55.788;37.572;2022-12-20T02:48:17;15.48;;;8.60;;
23642;SDS011;11998;55.788;37.572;2022-12-20T02:49:09;14.50;;;8.00;;
23642;SDS011;11998;55.788;37.572;2022-12-20T02:50:19;14.55;;;8.18;;
23642;SDS011;11998;55.788;37.572;2022-12-20T02:51:23;12.57;;;7.50;;
23642;SDS011;11998;55.788;37.572;2022-12-20T02:52:27;12.02;;;7.85;;
23642;SDS011;11998;55.788;37.572;2022-12-20T02:53:30;12.98;;;8.07;;
23642;SDS011;11998;55.788;37.572;2022-12-20T02:54:32;13.43;;;8.27;;
23642;SDS011;11998;55.788;37.572;2022-12-20T02:55:54;17.30;;;8.65;;
23642;SDS011;11998;55.788;37.572;2022-12-20T02:57:10;14.30;;;8.05;;
23642;SDS011;11998;55.788;37.572;2022-12-20T02:58:20;12.75;;;7.80;;
23642;SDS011;11998;55.788;37.572;2022-12-20T03:01:09;16.13;;;7.47;;
23642;SDS011;11998;55.788;37.572;2022-12-20T03:02:15;17.20;;;9.10;;
23642;SDS011;11998;55.788;37.572;2022-12-20T03:03:17;17.48;;;8.90;;
23642;SDS011;11998;55.788;37.572;2022-12-20T03:04:26;17.27;;;9.18;;
23642;SDS011;11998;55.788;37.572;2022-12-20T03:05:29;17.20;;;8.10;;
23642;SDS011;11998;55.788;37.572;2022-12-20T03:06:33;17.63;;;8.70;;
23642;SDS011;11998;55.788;37.572;2022-12-20T03:07:34;14.40;;;8.67;;
23642;SDS011;11998;55.788;37.572;2022-12-20T03:08:34;16.07;;;9.33;;
23642;SDS011;11998;55.788;37.572;2022-12-20T03:09:36;18.03;;;8.80;;
23642;SDS011;11998;55.788;37.572;2022-12-20T03:10:38;20.75;;;8.40;;
23642;SDS011;11998;55.788;37.572;2022-12-20T03:11:39;18.27;;;8.13;;
23642;SDS011;11998;55.788;37.572;2022-12-20T03:12:39;15.03;;;8.67;;
23642;SDS011;11998;55.788;37.572;2022-12-20T03:13:40;17.20;;;9.37;;
23642;SDS011;11998;55.788;37.572;2022-12-20T03:14:41;16.50;;;9.93;;
23642;SDS011;11998;55.788;37.572;2022-12-20T03:15:41;16.87;;;10.20;;
23642;SDS011;11998;55.788;37.572;2022-12-20T03:16:42;15.77;;;9.43;;
23642;SDS011;11998;55.788;37.572;2022-12-20T03:17:42;17.43;;;8.63;;
23642;SDS011;11998;55.788;37.572;2022-12-20T03:18:43;17.10;;;8.80;;
23642;SDS011;11998;55.788;37.572;2022-12-20T03:19:45;18.70;;;8.65;;
23642;SDS011;11998;55.788;37.572;2022-12-20T03:20:45;21.17;;;9.60;;
23642;SDS011;11998;55.788;37.572;2022-12-20T03:21:46;17.83;;;9.00;;
23642;SDS011;11998;55.788;37.572;2022-12-20T03:22:46;15.63;;;9.90;;
23642;SDS011;11998;55.788;37.572;2022-12-20T03:23:47;17.73;;;8.40;;
23642;SDS011;11998;55.788;37.572;2022-12-20T03:24:48;17.43;;;9.27;;
23642;SDS011;11998;55.788;37.572;2022-12-20T03:25:49;14.20;;;8.32;;
23642;SDS011;11998;55.788;37.572;2022-12-20T03:26:49;17.63;;;9.27;;
23642;SDS011;11998;55.788;37.572;2022-12-20T03:27:50;17.33;;;8.77;;
23642;SDS011;11998;55.788;37.572;2022-12-20T03:28:51;18.00;;;9.70;;
23642;SDS011;11998;55.788;37.572;2022-12-20T03:29:51;14.73;;;8.33;;
23642;SDS011;11998;55.788;37.572;2022-12-20T03:30:52;14.33;;;8.83;;
23642;SDS011;11998;55.788;37.572;2022-12-20T03:31:52;13.03;;;8.40;;
23642;SDS011;11998;55.788;37.572;2022-12-20T03:32:53;16.47;;;8.63;;
23642;SDS011;11998;55.788;37.572;2022-12-20T03:33:54;13.50;;;7.97;;
23642;SDS011;11998;55.788;37.572;2022-12-20T03:34:54;14.27;;;8.27;;
23642;SDS011;11998;55.788;37.572;2022-12-20T03:35:55;15.97;;;8.00;;
23642;SDS011;11998;55.788;37.572;2022-12-20T03:36:55;15.27;;;7.80;;
23642;SDS011;11998;55.788;37.572;2022-12-20T03:37:56;16.80;;;8.63;;
23642;SDS011;11998;55.788;37.572;2022-12-20T03:38:57;16.90;;;8.67;;
23642;SDS011;11998;55.788;37.572;2022-12-20T03:39:57;18.73;;;9.13;;
23642;SDS011;11998;55.788;37.572;2022-12-20T03:40:58;15.37;;;8.43;;
23642;SDS011;11998;55.788;37.572;2022-12-20T03:41:58;16.90;;;8.77;;
23642;SDS011;11998;55.788;37.572;2022-12-20T03:42:59;15.83;;;8.13;;
23642;SDS011;11998;55.788;37.572;2022-12-20T03:43:59;15.20;;;8.13;;
23642;SDS011;11998;55.788;37.572;2022-12-20T03:45:00;17.17;;;8.93;;
23642;SDS011;11998;55.788;37.572;2022-12-20T03:46:00;17.50;;;8.63;;
23642;SDS011;11998;55.788;37.572;2022-12-20T03:47:01;16.57;;;8.07;;
23642;SDS011;11998;55.788;37.572;2022-12-20T03:48:01;15.93;;;8.50;;
23642;SDS011;11998;55.788;37.572;2022-12-20T03:49:02;13.83;;;8.40;;
23642;SDS011;11998;55.788;37.572;2022-12-20T03:50:03;15.53;;;8.27;;
23642;SDS011;11998;55.788;37.572;2022-12-20T03:51:04;15.10;;;7.70;;
23642;SDS011;11998;55.788;37.572;2022-12-20T03:52:05;16.60;;;8.50;;
23642;SDS011;11998;55.788;37.572;2022-12-20T03:53:06;15.87;;;8.87;;
23642;SDS011;11998;55.788;37.572;2022-12-20T03:54:06;19.73;;;8.73;;
23642;SDS011;11998;55.788;37.572;2022-12-20T03:55:07;17.70;;;9.50;;
23642;SDS011;11998;55.788;37.572;2022-12-20T03:56:09;16.30;;;9.35;;
23642;SDS011;11998;55.788;37.572;2022-12-20T03:57:09;18.70;;;8.70;;
23642;SDS011;11998;55.788;37.572;2022-12-20T03:58:10;15.43;;;9.00;;
23642;SDS011;11998;55.788;37.572;2022-12-20T03:59:10;16.10;;;9.20;;
23642;SDS011;11998;55.788;37.572;2022-12-20T04:00:11;18.83;;;8.57;;
23642;SDS011;11998;55.788;37.572;2022-12-20T04:01:16;16.73;;;8.60;;
23642;SDS011;11998;55.788;37.572;2022-12-20T04:02:20;12.57;;;7.85;;
23642;SDS011;11998;55.788;37.572;2022-12-20T04:03:21;15.13;;;8.73;;
23642;SDS011;11998;55.788;37.572;2022-12-20T04:04:22;15.33;;;8.03;;
23642;SDS011;11998;55.788;37.572;2022-12-20T04:05:23;14.60;;;8.30;;
23642;SDS011;11998;55.788;37.572;2022-12-20T04:06:23;16.37;;;8.90;;
23642;SDS011;11998;55.788;37.572;2022-12-20T04:07:24;14.37;;;8.10;;
23642;SDS011;11998;55.788;37.572;2022-12-20T04:08:24;16.90;;;8.47;;
23642;SDS011;11998;55.788;37.572;2022-12-20T04:09:25;13.80;;;9.03;;
23642;SDS011;11998;55.788;37.572;2022-12-20T04:10:25;16.03;;;8.37;;
23642;SDS011;11998;55.788;37.572;2022-12-20T04:11:26;13.67;;;8.37;;
23642;SDS011;11998;55.788;37.572;2022-12-20T04:12:26;16.27;;;8.70;;
23642;SDS011;11998;55.788;37.572;2022-12-20T04:13:27;16.50;;;8.57;;
23642;SDS011;11998;55.788;37.572;2022-12-20T04:14:27;16.23;;;9.50;;
23642;SDS011;11998;55.788;37.572;2022-12-20T04:15:27;16.03;;;9.03;;
23642;SDS011;11998;55.788;37.572;2022-12-20T04:16:28;19.30;;;8.60;;
23642;SDS011;11998;55.788;37.572;2022-12-20T04:17:30;16.05;;;8.60;;
23642;SDS011;11998;55.788;37.572;2022-12-20T04:18:30;16.53;;;8.50;;
23642;SDS011;11998;55.788;37.572;2022-12-20T04:19:30;15.50;;;8.33;;
23642;SDS011;11998;55.788;37.572;2022-12-20T04:20:31;14.90;;;8.20;;
23642;SDS011;11998;55.788;37.572;2022-12-20T04:21:32;16.63;;;8.63;;
23642;SDS011;11998;55.788;37.572;2022-12-20T04:22:33;17.25;;;9.57;;
23642;SDS011;11998;55.788;37.572;2022-12-20T04:23:34;17.87;;;8.57;;
23642;SDS011;11998;55.788;37.572;2022-12-20T04:24:35;18.13;;;8.02;;
23642;SDS011;11998;55.788;37.572;2022-12-20T04:25:36;18.00;;;9.02;;
23642;SDS011;11998;55.788;37.572;2022-12-20T04:26:37;17.43;;;9.17;;
23642;SDS011;11998;55.788;37.572;2022-12-20T04:27:37;16.70;;;8.00;;
23642;SDS011;11998;55.788;37.572;2022-12-20T04:28:38;14.60;;;8.40;;
23642;SDS011;11998;55.788;37.572;2022-12-20T04:29:39;15.23;;;8.33;;
23642;SDS011;11998;55.788;37.572;2022-12-20T04:30:39;18.10;;;8.90;;
23642;SDS011;11998;55.788;37.572;2022-12-20T04:31:40;17.03;;;8.90;;
23642;SDS011;11998;55.788;37.572;2022-12-20T04:32:41;16.13;;;7.75;;
23642;SDS011;11998;55.788;37.572;2022-12-20T04:33:41;13.60;;;7.83;;
23642;SDS011;11998;55.788;37.572;2022-12-20T04:34:42;17.27;;;8.70;;
23642;SDS011;11998;55.788;37.572;2022-12-20T04:35:42;13.87;;;8.37;;
23642;SDS011;11998;55.788;37.572;2022-12-20T04:36:43;15.13;;;7.97;;
23642;SDS011;11998;55.788;37.572;2022-12-20T04:37:43;15.80;;;8.20;;
23642;SDS011;11998;55.788;37.572;2022-12-20T04:38:44;12.67;;;8.17;;
23642;SDS011;11998;55.788;37.572;2022-12-20T04:39:45;14.37;;;8.87;;
23642;SDS011;11998;55.788;37.572;2022-12-20T04:40:49;15.07;;;8.40;;
23642;SDS011;11998;55.788;37.572;2022-12-20T04:41:54;15.30;;;7.88;;
23642;SDS011;11998;55.788;37.572;2022-12-20T04:42:54;18.37;;;9.40;;
23642;SDS011;11998;55.788;37.572;2022-12-20T04:43:55;20.73;;;9.10;;
23642;SDS011;11998;55.788;37.572;2022-12-20T04:44:57;17.25;;;8.07;;
23642;SDS011;11998;55.788;37.572;2022-12-20T04:45:57;15.03;;;8.60;;
23642;SDS011;11998;55.788;37.572;2022-12-20T04:46:58;16.07;;;8.67;;
23642;SDS011;11998;55.788;37.572;2022-12-20T04:47:58;14.90;;;8.23;;
23642;SDS011;11998;55.788;37.572;2022-12-20T04:48:59;15.33;;;8.20;;
23642;SDS011;11998;55.788;37.572;2022-12-20T04:49:59;15.47;;;8.03;;
23642;SDS011;11998;55.788;37.572;2022-12-20T04:51:00;13.43;;;7.90;;
23642;SDS011;11998;55.788;37.572;2022-12-20T04:52:00;14.33;;;8.07;;
23642;SDS011;11998;55.788;37.572;2022-12-20T04:54:40;12.88;;;7.28;;
23642;SDS011;11998;55.788;37.572;2022-12-20T04:55:41;17.60;;;9.60;;
23642;SDS011;11998;55.788;37.572;2022-12-20T04:56:42;15.27;;;8.20;;
23642;SDS011;11998;55.788;37.572;2022-12-20T04:57:42;17.03;;;8.77;;
23642;SDS011;11998;55.788;37.572;2022-12-20T04:58:43;14.40;;;8.37;;
23642;SDS011;11998;55.788;37.572;2022-12-20T04:59:44;16.25;;;8.93;;
23642;SDS011;11998;55.788;37.572;2022-12-20T05:00:44;16.57;;;8.83;;
23642;SDS011;11998;55.788;37.572;2022-12-20T05:01:45;16.07;;;8.13;;
23642;SDS011;11998;55.788;37.572;2022-12-20T05:02:45;17.27;;;8.80;;
23642;SDS011;11998;55.788;37.572;2022-12-20T05:03:46;16.47;;;8.13;;
23642;SDS011;11998;55.788;37.572;2022-12-20T05:04:48;15.55;;;8.30;;
23642;SDS011;11998;55.788;37.572;2022-12-20T05:05:48;17.17;;;8.70;;
23642;SDS011;11998;55.788;37.572;2022-12-20T05:06:49;13.60;;;7.70;;
23642;SDS011;11998;55.788;37.572;2022-12-20T05:07:50;16.83;;;9.13;;
23642;SDS011;11998;55.788;37.572;2022-12-20T05:08:51;17.85;;;8.93;;
23642;SDS011;11998;55.788;37.572;2022-12-20T05:09:51;17.77;;;9.20;;
23642;SDS011;11998;55.788;37.572;2022-12-20T05:10:52;14.40;;;8.57;;
23642;SDS011;11998;55.788;37.572;2022-12-20T05:11:52;17.47;;;7.83;;
23642;SDS011;11998;55.788;37.572;2022-12-20T05:12:53;16.20;;;8.43;;
23642;SDS011;11998;55.788;37.572;2022-12-20T05:13:53;16.37;;;9.03;;
23642;SDS011;11998;55.788;37.572;2022-12-20T05:14:54;16.87;;;9.13;;
23642;SDS011;11998;55.788;37.572;2022-12-20T05:15:55;14.57;;;8.27;;
23642;SDS011;11998;55.788;37.572;2022-12-20T05:16:56;18.23;;;9.38;;
23642;SDS011;11998;55.788;37.572;2022-12-20T05:17:57;15.20;;;8.67;;
23642;SDS011;11998;55.788;37.572;2022-12-20T05:18:58;15.15;;;8.43;;
23642;SDS011;11998;55.788;37.572;2022-12-20T05:19:59;17.10;;;8.17;;
23642;SDS011;11998;55.788;37.572;2022-12-20T05:21:00;15.87;;;8.50;;
23642;SDS011;11998;55.788;37.572;2022-12-20T05:22:19;16.33;;;8.93;;
23642;SDS011;11998;55.788;37.572;2022-12-20T05:23:39;16.67;;;8.98;;
23642;SDS011;11998;55.788;37.572;2022-12-20T05:24:58;16.65;;;9.40;;
23642;SDS011;11998;55.788;37.572;2022-12-20T05:26:17;18.20;;;8.82;;
23642;SDS011;11998;55.788;37.572;2022-12-20T05:27:18;17.83;;;9.60;;
23642;SDS011;11998;55.788;37.572;2022-12-20T05:28:19;15.20;;;8.13;;
23642;SDS011;11998;55.788;37.572;2022-12-20T05:29:19;16.73;;;9.30;;
23642;SDS011;11998;55.788;37.572;2022-12-20T05:30:20;17.23;;;9.20;;
23642;SDS011;11998;55.788;37.572;2022-12-20T05:31:20;16.43;;;8.43;;
23642;SDS011;11998;55.788;37.572;2022-12-20T05:32:21;20.23;;;9.47;;
23642;SDS011;11998;55.788;37.572;2022-12-20T05:33:21;18.10;;;9.63;;
23642;SDS011;11998;55.788;37.572;2022-12-20T05:34:22;19.33;;;10.20;;
23642;SDS011;11998;55.788;37.572;2022-12-20T05:35:23;18.70;;;9.43;;
23642;SDS011;11998;55.788;37.572;2022-12-20T05:36:23;18.63;;;10.27;;
23642;SDS011;11998;55.788;37.572;2022-12-20T05:37:24;18.60;;;9.73;;
23642;SDS011;11998;55.788;37.572;2022-12-20T05:38:24;20.30;;;10.93;;
23642;SDS011;11998;55.788;37.572;2022-12-20T05:39:26;17.85;;;9.80;;
23642;SDS011;11998;55.788;37.572;2022-12-20T05:40:27;17.73;;;9.77;;
23642;SDS011;11998;55.788;37.572;2022-12-20T05:41:27;18.33;;;11.00;;
23642;SDS011;11998;55.788;37.572;2022-12-20T05:42:28;17.47;;;10.20;;
23642;SDS011;11998;55.788;37.572;2022-12-20T05:43:28;17.60;;;10.20;;
23642;SDS011;11998;55.788;37.572;2022-12-20T05:44:29;18.17;;;11.00;;
23642;SDS011;11998;55.788;37.572;2022-12-20T05:45:29;19.10;;;10.30;;
23642;SDS011;11998;55.788;37.572;2022-12-20T05:46:30;20.77;;;10.53;;
23642;SDS011;11998;55.788;37.572;2022-12-20T05:47:31;17.17;;;10.23;;
23642;SDS011;11998;55.788;37.572;2022-12-20T05:48:32;20.60;;;10.63;;
23642;SDS011;11998;55.788;37.572;2022-12-20T05:49:33;17.60;;;9.87;;
23642;SDS011;11998;55.788;37.572;2022-12-20T05:50:34;17.00;;;10.20;;
23642;SDS011;11998;55.788;37.572;2022-12-20T05:51:34;17.33;;;10.10;;
23642;SDS011;11998;55.788;37.572;2022-12-20T05:52:35;18.13;;;10.60;;
23642;SDS011;11998;55.788;37.572;2022-12-20T05:53:35;18.80;;;10.27;;
23642;SDS011;11998;55.788;37.572;2022-12-20T05:54:36;20.13;;;10.60;;
23642;SDS011;11998;55.788;37.572;2022-12-20T05:55:36;17.97;;;10.07;;
23642;SDS011;11998;55.788;37.572;2022-12-20T05:56:39;18.42;;;9.82;;
23642;SDS011;11998;55.788;37.572;2022-12-20T05:57:40;18.47;;;10.70;;
23642;SDS011;11998;55.788;37.572;2022-12-20T05:58:40;20.07;;;10.83;;
23642;SDS011;11998;55.788;37.572;2022-12-20T05:59:41;17.63;;;9.30;;
23642;SDS011;11998;55.788;37.572;2022-12-20T06:00:41;17.17;;;9.50;;
23642;SDS011;11998;55.788;37.572;2022-12-20T06:01:43;19.38;;;10.45;;
23642;SDS011;11998;55.788;37.572;2022-12-20T06:02:43;20.00;;;10.80;;
23642;SDS011;11998;55.788;37.572;2022-12-20T06:03:44;19.77;;;10.77;;
23642;SDS011;11998;55.788;37.572;2022-12-20T06:04:45;22.55;;;10.38;;
23642;SDS011;11998;55.788;37.572;2022-12-20T06:05:45;19.17;;;10.63;;
23642;SDS011;11998;55.788;37.572;2022-12-20T06:06:46;21.30;;;10.67;;
23642;SDS011;11998;55.788;37.572;2022-12-20T06:07:47;21.73;;;10.10;;
23642;SDS011;11998;55.788;37.572;2022-12-20T06:08:48;18.90;;;10.80;;
23642;SDS011;11998;55.788;37.572;2022-12-20T06:09:48;19.50;;;9.60;;
23642;SDS011;11998;55.788;37.572;2022-12-20T06:10:49;17.67;;;9.83;;
23642;SDS011;11998;55.788;37.572;2022-12-20T06:11:49;18.23;;;9.87;;
23642;SDS011;11998;55.788;37.572;2022-12-20T06:12:50;18.50;;;9.47;;
23642;SDS011;11998;55.788;37.572;2022-12-20T06:13:50;15.00;;;9.53;;
23642;SDS011;11998;55.788;37.572;2022-12-20T06:14:51;16.27;;;9.37;;
23642;SDS011;11998;55.788;37.572;2022-12-20T06:15:52;17.23;;;9.13;;
23642;SDS011;11998;55.788;37.572;2022-12-20T06:16:52;19.00;;;10.03;;
23642;SDS011;11998;55.788;37.572;2022-12-20T06:17:53;15.00;;;8.83;;
23642;SDS011;11998;55.788;37.572;2022-12-20T06:18:53;17.93;;;10.00;;
23642;SDS011;11998;55.788;37.572;2022-12-20T06:19:54;20.30;;;9.77;;
23642;SDS011;11998;55.788;37.572;2022-12-20T06:20:54;14.90;;;8.77;;